aviador You're here:

KRST Decoded Metar

ROCHESTER in MN, USA
Report Time2017-06-29 06:54:00
UTC Time2017-06-29 07:17:33
Flight Rules vfr VFR
Wind250° at 08 kt
W.Decomp.*RWY 20: 5.2 kt HW 6.0 kt RCW
RWY 31: 3.9 kt HW 7 kt LCW
W.Rank250° ranks 23
Current wind is below 250° avg. (8.9)
Visibility9999 m
Phenomena:N/A
Clouds:N/A
CeilingNone
Temp18°C (ISA +6)
Dew Point18°C (100% RH)
AAT17.9°C
QNH1005 hPa
Density Alt2,533 ft
Elevation1,322 ft
Report Wrong Elevation
Raw Report
KRST 290654Z AUTO 25008KT 10SM CLR 18/18 A2968 RMK AO2 SLP045
T01830178=

Extra information for KRST:More info

Metar Taf Metar & Taf Last 4 Metars F.Rules Stats Wind Profile Meteogram Temp Stats Airport Information Weather charts Add Link Nearby VenuesMetar ALERT Operation Metar Decoded Social comments

AIRNAV info for KRST